createdAt,value
2022-12-09T00:04:11.345Z,6.05
2022-12-09T00:09:04.045Z,5.50
2022-12-09T00:13:58.682Z,5.18
2022-12-09T00:18:51.370Z,5.43
2022-12-09T00:23:43.405Z,3.88
2022-12-09T00:28:35.355Z,4.88
2022-12-09T00:33:27.485Z,3.65
2022-12-09T00:38:19.138Z,4.03
2022-12-09T00:43:10.937Z,3.85
2022-12-09T00:48:02.627Z,3.75
2022-12-09T00:52:54.593Z,4.05
2022-12-09T00:57:46.374Z,3.22
2022-12-09T01:02:38.290Z,3.05
2022-12-09T01:07:30.371Z,3.75
2022-12-09T01:12:22.279Z,2.40
2022-12-09T01:17:14.360Z,3.08
2022-12-09T01:22:06.370Z,1.80
2022-12-09T01:26:58.064Z,2.40
2022-12-09T01:31:50.049Z,2.28
2022-12-09T01:36:41.861Z,3.60
2022-12-09T01:41:34.465Z,3.00
2022-12-09T01:46:26.220Z,3.22
2022-12-09T01:51:20.135Z,2.58
2022-12-09T01:56:24.868Z,1.98
2022-12-09T02:01:18.387Z,1.45
2022-12-09T02:06:10.502Z,2.10
2022-12-09T02:11:23.574Z,1.48
2022-12-09T02:16:20.205Z,1.75
2022-12-09T02:21:36.955Z,2.30
2022-12-09T02:26:43.875Z,2.88
2022-12-09T02:32:00.336Z,2.72
2022-12-09T02:37:10.558Z,2.35
2022-12-09T02:42:06.718Z,3.90
2022-12-09T02:46:59.712Z,3.28
2022-12-09T02:51:52.250Z,3.53
2022-12-09T02:56:52.374Z,3.28
2022-12-09T03:02:08.313Z,2.38
2022-12-09T03:07:34.134Z,3.85
2022-12-09T03:12:31.339Z,2.33
2022-12-09T03:17:32.653Z,2.67
2022-12-09T03:22:28.602Z,2.08
2022-12-09T03:27:32.356Z,1.98
2022-12-09T03:32:26.866Z,2.25
2022-12-09T03:37:21.306Z,3.50
2022-12-09T03:42:43.121Z,2.38
2022-12-09T03:47:35.955Z,2.58
2022-12-09T03:52:40.808Z,2.75
2022-12-09T03:57:37.696Z,2.47
2022-12-09T04:02:29.801Z,2.33
2022-12-09T04:07:22.180Z,2.75
2022-12-09T04:12:14.034Z,2.83
2022-12-09T04:17:05.832Z,2.67
2022-12-09T04:21:57.682Z,2.70
2022-12-09T04:26:49.432Z,3.85
2022-12-09T04:31:41.505Z,2.88
2022-12-09T04:36:33.449Z,2.83
2022-12-09T04:41:25.363Z,1.90
2022-12-09T04:46:18.654Z,1.77
2022-12-09T04:51:12.533Z,1.65
2022-12-09T04:56:19.072Z,2.92
2022-12-09T05:01:31.134Z,3.17
2022-12-09T05:06:23.905Z,2.38
2022-12-09T05:11:17.178Z,2.80
2022-12-09T05:16:16.312Z,3.55
2022-12-09T05:21:14.419Z,2.53
2022-12-09T05:26:08.343Z,3.40
2022-12-09T05:31:04.839Z,3.17
2022-12-09T05:35:57.395Z,2.47
2022-12-09T05:40:49.244Z,3.40
2022-12-09T05:45:41.456Z,2.65
2022-12-09T05:50:33.591Z,3.40
2022-12-09T05:55:25.795Z,3.15
2022-12-09T06:00:18.167Z,2.72
2022-12-09T06:05:10.300Z,2.80
2022-12-09T06:10:03.115Z,3.33
2022-12-09T06:14:55.044Z,2.97
2022-12-09T06:19:46.849Z,2.97
2022-12-09T06:24:38.860Z,3.03
2022-12-09T06:29:30.827Z,2.88
2022-12-09T06:34:23.814Z,3.10
2022-12-09T06:39:15.909Z,3.45
2022-12-09T06:44:08.015Z,3.25
2022-12-09T06:49:00.228Z,3.75
2022-12-09T06:53:52.731Z,3.22
2022-12-09T06:58:46.543Z,3.20
2022-12-09T07:03:38.609Z,3.60
2022-12-09T07:08:30.979Z,3.53
2022-12-09T07:13:22.920Z,4.35
2022-12-09T07:18:15.286Z,4.70
2022-12-09T07:23:07.163Z,3.80
2022-12-09T07:27:58.898Z,3.67
2022-12-09T07:32:50.934Z,3.53
2022-12-09T07:37:43.245Z,3.85
2022-12-09T07:42:36.587Z,3.97
2022-12-09T07:47:28.803Z,3.80
2022-12-09T07:52:21.059Z,3.70
2022-12-09T07:57:13.136Z,4.93
2022-12-09T08:02:06.760Z,5.15
2022-12-09T08:06:59.743Z,5.07
2022-12-09T08:11:51.746Z,5.43
2022-12-09T08:16:44.141Z,5.43
2022-12-09T08:21:36.814Z,6.25
2022-12-09T08:26:31.498Z,3.78
2022-12-09T08:31:25.682Z,5.43
2022-12-09T08:36:26.608Z,5.82
2022-12-09T08:41:38.691Z,6.18
2022-12-09T08:46:32.260Z,7.10
2022-12-09T08:51:24.898Z,4.45
2022-12-09T08:56:16.877Z,4.53
2022-12-09T09:01:18.878Z,4.40
2022-12-09T09:06:11.442Z,4.43
2022-12-09T09:11:10.476Z,3.67
2022-12-09T09:16:02.710Z,3.35
2022-12-09T09:20:59.595Z,2.50
2022-12-09T09:25:52.926Z,2.78
2022-12-09T09:30:44.794Z,2.70
2022-12-09T09:35:36.713Z,2.55
2022-12-09T09:40:29.617Z,2.72
2022-12-09T09:45:23.500Z,1.83
2022-12-09T09:50:36.278Z,2.00
2022-12-09T09:55:44.638Z,1.40
2022-12-09T10:01:04.406Z,1.27
2022-12-09T10:06:02.935Z,1.10
2022-12-09T10:11:20.139Z,1.00
2022-12-09T10:17:09.621Z,0.73
2022-12-09T10:22:18.735Z,0.75
2022-12-09T10:27:44.656Z,0.80
2022-12-09T10:32:38.349Z,0.65
2022-12-09T10:37:36.318Z,0.75
2022-12-09T10:42:47.818Z,1.20
2022-12-09T10:47:40.406Z,0.77
2022-12-09T10:52:44.646Z,0.70
2022-12-09T10:57:36.853Z,0.80
2022-12-09T11:02:30.279Z,0.70
2022-12-09T11:07:26.097Z,0.60
2022-12-09T11:12:28.575Z,0.57
2022-12-09T11:17:25.199Z,0.90
2022-12-09T11:22:43.422Z,0.75
2022-12-09T11:27:35.463Z,1.02
2022-12-09T11:32:27.695Z,0.95
2022-12-09T11:37:19.464Z,1.00
2022-12-09T11:42:20.067Z,0.88
2022-12-09T11:47:20.276Z,0.80
2022-12-09T11:52:18.253Z,1.20
2022-12-09T11:57:27.245Z,0.70
2022-12-09T12:02:24.935Z,0.90
2022-12-09T12:07:27.909Z,0.60
2022-12-09T12:12:43.257Z,0.60
2022-12-09T12:17:41.343Z,0.60
2022-12-09T12:22:36.336Z,0.60
2022-12-09T12:28:03.321Z,0.52
2022-12-09T12:38:55.377Z,0.80
2022-12-09T12:44:21.102Z,0.70
2022-12-09T12:49:39.165Z,0.80
2022-12-09T12:54:45.477Z,0.90
2022-12-09T12:59:40.085Z,0.82
2022-12-09T13:05:00.083Z,0.75
2022-12-09T13:10:04.522Z,0.90
2022-12-09T13:14:56.501Z,0.60
2022-12-09T13:19:52.590Z,1.00
2022-12-09T13:24:59.818Z,0.60
2022-12-09T13:30:10.891Z,0.50
2022-12-09T13:35:13.773Z,1.02
2022-12-09T13:40:39.048Z,0.40
2022-12-09T13:45:36.180Z,0.60
2022-12-09T13:50:41.821Z,0.50
2022-12-09T13:55:49.878Z,0.65
2022-12-09T14:00:44.237Z,0.50
2022-12-09T14:05:37.070Z,0.50
2022-12-09T14:10:45.416Z,0.50
2022-12-09T14:15:38.359Z,0.60
2022-12-09T14:20:36.947Z,0.45
2022-12-09T14:25:29.336Z,0.70
2022-12-09T14:31:10.551Z,0.70
2022-12-09T14:36:20.522Z,0.63
2022-12-09T14:41:21.221Z,0.60
2022-12-09T14:46:35.734Z,0.60
2022-12-09T14:51:27.683Z,1.02
2022-12-09T14:56:21.861Z,0.60
2022-12-09T15:01:13.597Z,0.85
2022-12-09T15:06:12.410Z,0.68
2022-12-09T15:11:19.690Z,0.70
2022-12-09T15:16:18.179Z,0.50
2022-12-09T15:21:10.507Z,0.70
2022-12-09T15:26:06.723Z,0.80
2022-12-09T15:31:18.473Z,1.00
2022-12-09T15:36:12.929Z,0.98
2022-12-09T15:41:26.765Z,0.95
2022-12-09T15:46:18.587Z,1.30
2022-12-09T15:51:17.987Z,0.85
2022-12-09T15:56:18.302Z,0.52
2022-12-09T16:01:10.335Z,0.50
2022-12-09T16:06:09.676Z,0.40
2022-12-09T16:11:01.776Z,0.50
2022-12-09T16:15:56.112Z,0.25
2022-12-09T16:21:01.669Z,0.30
2022-12-09T16:26:03.144Z,0.35
2022-12-09T16:31:01.623Z,0.30
2022-12-09T16:36:00.232Z,0.70
2022-12-09T16:40:54.404Z,0.70
2022-12-09T16:46:00.939Z,1.55
2022-12-09T16:51:13.457Z,1.20
2022-12-09T16:56:05.410Z,0.60
2022-12-09T17:00:58.738Z,0.47
2022-12-09T17:05:50.527Z,2.20
2022-12-09T17:10:43.009Z,0.70
2022-12-09T17:15:34.726Z,0.68
2022-12-09T17:20:28.112Z,0.75
2022-12-09T17:25:19.894Z,0.70
2022-12-09T17:30:12.234Z,0.70
2022-12-09T17:35:10.669Z,1.65
2022-12-09T17:40:04.632Z,3.72
2022-12-09T17:44:56.353Z,4.93
2022-12-09T17:49:48.005Z,7.70
2022-12-09T17:54:39.697Z,12.70
2022-12-09T17:59:31.537Z,13.55
2022-12-09T18:04:23.224Z,20.42
2022-12-09T18:09:17.797Z,11.98
2022-12-09T18:14:10.403Z,5.38
2022-12-09T18:19:09.877Z,2.25
2022-12-09T18:24:01.646Z,5.85
2022-12-09T18:28:57.196Z,5.47
2022-12-09T18:33:49.022Z,6.88
2022-12-09T18:38:42.300Z,6.10
2022-12-09T18:43:37.640Z,6.15
2022-12-09T18:48:30.896Z,4.65
2022-12-09T18:53:22.929Z,3.42
2022-12-09T18:58:14.848Z,2.63
2022-12-09T19:03:06.735Z,3.13
2022-12-09T19:07:58.544Z,2.85
2022-12-09T19:12:56.363Z,2.15
2022-12-09T19:17:48.492Z,1.30
2022-12-09T19:22:40.213Z,1.00
2022-12-09T19:27:31.848Z,0.70
2022-12-09T19:32:51.823Z,0.90
2022-12-09T19:37:35.806Z,2.30
2022-12-09T19:42:27.417Z,2.30
2022-12-09T19:47:19.162Z,1.25
2022-12-09T19:52:12.222Z,1.30
2022-12-09T19:57:04.254Z,1.50
2022-12-09T20:01:56.181Z,2.83
2022-12-09T20:06:48.162Z,9.52
2022-12-09T20:11:41.769Z,11.18
2022-12-09T20:16:34.199Z,15.65
2022-12-09T20:21:26.629Z,15.00
2022-12-09T20:26:20.025Z,17.38
2022-12-09T20:31:17.891Z,11.82
2022-12-09T20:36:14.472Z,7.25
2022-12-09T20:41:12.314Z,8.57
2022-12-09T20:46:15.016Z,7.93
2022-12-09T20:51:08.794Z,5.63
2022-12-09T20:56:01.634Z,9.40
2022-12-09T21:00:53.470Z,5.35
2022-12-09T21:05:45.347Z,4.75
2022-12-09T21:10:37.149Z,3.92
2022-12-09T21:15:29.668Z,6.35
2022-12-09T21:20:24.434Z,2.35
2022-12-09T21:25:16.249Z,1.42
2022-12-09T21:30:08.922Z,1.35
2022-12-09T21:35:02.211Z,1.08
2022-12-09T21:39:53.974Z,1.30
2022-12-09T21:44:45.793Z,1.20
2022-12-09T21:49:37.609Z,1.20
2022-12-09T21:54:29.383Z,1.58
2022-12-09T21:59:21.233Z,1.50
2022-12-09T22:04:16.345Z,1.20
2022-12-09T22:09:09.145Z,0.80
2022-12-09T22:14:01.656Z,1.30
2022-12-09T22:18:55.222Z,0.80
2022-12-09T22:23:47.020Z,1.05
2022-12-09T22:28:39.473Z,0.60
2022-12-09T22:33:31.268Z,0.82
2022-12-09T22:38:23.212Z,0.70
2022-12-09T22:43:14.889Z,0.70
2022-12-09T22:48:06.650Z,0.50
2022-12-09T22:52:58.309Z,0.60
2022-12-09T22:57:51.969Z,0.80
2022-12-09T23:02:43.686Z,0.52
2022-12-09T23:07:35.936Z,0.50
2022-12-09T23:12:27.973Z,0.45
2022-12-09T23:17:19.789Z,0.50
2022-12-09T23:22:11.434Z,0.85
2022-12-09T23:27:03.237Z,0.68
2022-12-09T23:31:54.926Z,0.57
2022-12-09T23:36:46.794Z,0.50
2022-12-09T23:41:40.350Z,0.50
2022-12-09T23:46:32.150Z,0.50
2022-12-09T23:51:29.781Z,0.52
2022-12-09T23:56:24.662Z,0.40
